Dallas, TX

4:10 PM CST on December 25, 2014 (GMT -0600)
Bryan Parkway | Change Station
CLOSE
Current Station
Personal Weather Station
Location: Dallas, TX
Elevation: 525 ft
Nearby Weather Stations
Active Advisory: Wind Advisory

Elev 525 ft 32.81 °N, 96.76 °W | Updated 5 seconds ago

Clear
Clear
61.2 °F
Feels Like 61.2 °F
N
16.1
Wind Variable Wind from SSW
Gusts 32.2 mph

Today
High -- | Low -- °F
--% Chance of Precip.
Yesterday
High -- | Low -- °F
Precip. -- in
7:27 AM 5:27 PM
Waxing Crescent, 19% visible
Pressure 29.92 in
Visibility 10.0 miles
Clouds Few 20000 ft
Mostly Cloudy 32000 ft
Dew Point 19 °F
Humidity 19%
Rainfall 0.00 in
Snow Depth Not available.
UV 1 out of 12
Pollen 11.00 out of 12
Air Quality Not available.
Flu Activity Not available.
METAR KDAL 252153Z 20020G32KT 10SM FEW200 BKN320 17/M03 A2992 RMK AO2 PK WND 18032/2130 SLP130 T01671028

More Conditions Fewer Conditions

Pressure 29.92 in
Visibility 10.0 miles
Clouds Few 20000 ft
Mostly Cloudy 32000 ft
Dew Point 19 °F
Humidity 19%
Rainfall 0.00 in
Snow Depth Not available.
UV 1 out of 12
Pollen 11.00 out of 12
Air Quality Not available.
Flu Activity Not available.
METAR KDAL 252153Z 20020G32KT 10SM FEW200 BKN320 17/M03 A2992 RMK AO2 PK WND 18032/2130 SLP130 T01671028

More Conditions Fewer Conditions

10-Day Weather Forecast

Almanac

Astronomy

Dec. 25, 2014 Rise Set
Actual Time
Civil Twilight
Nautical Twilight
Astronomical Twilight
Moon
Length of Visible Light
Length of Day
Tomorrow will be .
, % of the Moon is Illuminated

Today's Extremes

State Highs State Lows

Community

WunderPhotos

Upload Photos

1,780,424 photos uploaded!

WunderBlogs® & News

Nearby

Air Quality

  Air Quality AQ Index Pollutant
Not available.

Snow Depth

Station Depth Elevation

Earthquake Activity

City Distance Mag. Time & Date
Minimum magnitude displayed is 2.5.

Coastal Water Temperatures

Place Temperature

Nearby Weather Stations